sensor_id;sensor_type;location;lat;lon;timestamp;P1;durP1;ratioP1;P2;durP2;ratioP2
38787;SDS011;24536;45.488;12.238;2023-03-19T00:02:19;7.03;;;4.93;;
38787;SDS011;24536;45.488;12.238;2023-03-19T00:04:45;8.50;;;5.28;;
38787;SDS011;24536;45.488;12.238;2023-03-19T00:07:11;7.82;;;5.95;;
38787;SDS011;24536;45.488;12.238;2023-03-19T00:09:38;6.55;;;5.00;;
38787;SDS011;24536;45.488;12.238;2023-03-19T00:12:04;8.88;;;5.45;;
38787;SDS011;24536;45.488;12.238;2023-03-19T00:14:30;7.72;;;5.32;;
38787;SDS011;24536;45.488;12.238;2023-03-19T00:16:56;7.45;;;5.63;;
38787;SDS011;24536;45.488;12.238;2023-03-19T00:19:22;8.68;;;5.93;;
38787;SDS011;24536;45.488;12.238;2023-03-19T00:21:47;8.38;;;6.03;;
38787;SDS011;24536;45.488;12.238;2023-03-19T00:24:13;7.97;;;5.50;;
38787;SDS011;24536;45.488;12.238;2023-03-19T00:26:41;10.02;;;6.03;;
38787;SDS011;24536;45.488;12.238;2023-03-19T00:29:07;7.78;;;5.70;;
38787;SDS011;24536;45.488;12.238;2023-03-19T00:31:33;11.02;;;6.38;;
38787;SDS011;24536;45.488;12.238;2023-03-19T00:33:59;7.75;;;5.97;;
38787;SDS011;24536;45.488;12.238;2023-03-19T00:36:26;8.07;;;6.43;;
38787;SDS011;24536;45.488;12.238;2023-03-19T00:38:53;9.20;;;6.43;;
38787;SDS011;24536;45.488;12.238;2023-03-19T00:41:18;10.68;;;5.95;;
38787;SDS011;24536;45.488;12.238;2023-03-19T00:43:45;9.10;;;6.70;;
38787;SDS011;24536;45.488;12.238;2023-03-19T00:46:11;10.27;;;6.85;;
38787;SDS011;24536;45.488;12.238;2023-03-19T00:48:37;9.48;;;6.90;;
38787;SDS011;24536;45.488;12.238;2023-03-19T00:51:06;8.35;;;6.90;;
38787;SDS011;24536;45.488;12.238;2023-03-19T00:53:40;8.23;;;6.72;;
38787;SDS011;24536;45.488;12.238;2023-03-19T00:56:08;11.55;;;6.78;;
38787;SDS011;24536;45.488;12.238;2023-03-19T00:58:36;10.20;;;6.88;;
38787;SDS011;24536;45.488;12.238;2023-03-19T01:01:03;9.40;;;6.40;;
38787;SDS011;24536;45.488;12.238;2023-03-19T01:03:29;8.65;;;7.03;;
38787;SDS011;24536;45.488;12.238;2023-03-19T01:05:55;9.45;;;6.47;;
38787;SDS011;24536;45.488;12.238;2023-03-19T01:08:22;9.65;;;6.60;;
38787;SDS011;24536;45.488;12.238;2023-03-19T01:10:47;12.02;;;7.22;;
38787;SDS011;24536;45.488;12.238;2023-03-19T01:13:13;11.48;;;8.15;;
38787;SDS011;24536;45.488;12.238;2023-03-19T01:15:40;9.43;;;7.45;;
38787;SDS011;24536;45.488;12.238;2023-03-19T01:18:07;11.35;;;8.05;;
38787;SDS011;24536;45.488;12.238;2023-03-19T01:20:34;10.05;;;7.90;;
38787;SDS011;24536;45.488;12.238;2023-03-19T01:23:02;8.90;;;6.63;;
38787;SDS011;24536;45.488;12.238;2023-03-19T01:25:28;13.05;;;7.20;;
38787;SDS011;24536;45.488;12.238;2023-03-19T01:27:54;11.95;;;8.00;;
38787;SDS011;24536;45.488;12.238;2023-03-19T01:30:20;10.23;;;7.80;;
38787;SDS011;24536;45.488;12.238;2023-03-19T01:32:46;9.95;;;7.55;;
38787;SDS011;24536;45.488;12.238;2023-03-19T01:35:12;9.43;;;7.00;;
38787;SDS011;24536;45.488;12.238;2023-03-19T01:37:37;10.43;;;7.18;;
38787;SDS011;24536;45.488;12.238;2023-03-19T01:40:04;10.45;;;7.82;;
38787;SDS011;24536;45.488;12.238;2023-03-19T01:42:31;9.73;;;6.82;;
38787;SDS011;24536;45.488;12.238;2023-03-19T01:44:57;8.48;;;6.75;;
38787;SDS011;24536;45.488;12.238;2023-03-19T01:47:31;10.80;;;6.90;;
38787;SDS011;24536;45.488;12.238;2023-03-19T01:50:03;11.00;;;7.18;;
38787;SDS011;24536;45.488;12.238;2023-03-19T01:52:30;9.25;;;6.65;;
38787;SDS011;24536;45.488;12.238;2023-03-19T01:54:59;8.15;;;6.15;;
38787;SDS011;24536;45.488;12.238;2023-03-19T01:57:27;9.48;;;6.40;;
38787;SDS011;24536;45.488;12.238;2023-03-19T01:59:55;8.75;;;6.95;;
38787;SDS011;24536;45.488;12.238;2023-03-19T02:02:29;8.43;;;6.53;;
38787;SDS011;24536;45.488;12.238;2023-03-19T02:05:00;8.50;;;6.43;;
38787;SDS011;24536;45.488;12.238;2023-03-19T02:07:30;9.82;;;6.88;;
38787;SDS011;24536;45.488;12.238;2023-03-19T02:09:58;8.15;;;6.72;;
38787;SDS011;24536;45.488;12.238;2023-03-19T02:12:25;9.20;;;6.93;;
38787;SDS011;24536;45.488;12.238;2023-03-19T02:14:52;9.40;;;6.32;;
38787;SDS011;24536;45.488;12.238;2023-03-19T02:17:18;10.32;;;6.10;;
38787;SDS011;24536;45.488;12.238;2023-03-19T02:22:32;9.43;;;6.53;;
38787;SDS011;24536;45.488;12.238;2023-03-19T02:25:03;9.07;;;6.32;;
38787;SDS011;24536;45.488;12.238;2023-03-19T02:27:38;11.13;;;6.80;;
38787;SDS011;24536;45.488;12.238;2023-03-19T02:30:20;8.18;;;6.43;;
38787;SDS011;24536;45.488;12.238;2023-03-19T02:32:51;9.63;;;6.85;;
38787;SDS011;24536;45.488;12.238;2023-03-19T02:35:16;9.85;;;6.63;;
38787;SDS011;24536;45.488;12.238;2023-03-19T02:37:42;9.60;;;6.85;;
38787;SDS011;24536;45.488;12.238;2023-03-19T02:40:12;7.45;;;6.25;;
38787;SDS011;24536;45.488;12.238;2023-03-19T02:42:45;9.25;;;7.07;;
38787;SDS011;24536;45.488;12.238;2023-03-19T02:45:10;10.32;;;7.05;;
38787;SDS011;24536;45.488;12.238;2023-03-19T02:47:37;10.07;;;7.03;;
38787;SDS011;24536;45.488;12.238;2023-03-19T02:50:03;8.88;;;6.80;;
38787;SDS011;24536;45.488;12.238;2023-03-19T02:52:28;7.85;;;6.65;;
38787;SDS011;24536;45.488;12.238;2023-03-19T02:54:54;10.35;;;6.57;;
38787;SDS011;24536;45.488;12.238;2023-03-19T02:57:20;11.70;;;6.88;;
38787;SDS011;24536;45.488;12.238;2023-03-19T02:59:45;8.52;;;7.00;;
38787;SDS011;24536;45.488;12.238;2023-03-19T03:02:11;8.75;;;6.78;;
38787;SDS011;24536;45.488;12.238;2023-03-19T03:04:37;10.18;;;6.57;;
38787;SDS011;24536;45.488;12.238;2023-03-19T03:07:03;8.25;;;6.18;;
38787;SDS011;24536;45.488;12.238;2023-03-19T03:09:30;9.88;;;6.80;;
38787;SDS011;24536;45.488;12.238;2023-03-19T03:11:55;9.25;;;6.97;;
38787;SDS011;24536;45.488;12.238;2023-03-19T03:14:21;9.30;;;6.68;;
38787;SDS011;24536;45.488;12.238;2023-03-19T03:16:47;8.23;;;6.97;;
38787;SDS011;24536;45.488;12.238;2023-03-19T03:19:13;10.45;;;7.50;;
38787;SDS011;24536;45.488;12.238;2023-03-19T03:21:38;9.18;;;6.90;;
38787;SDS011;24536;45.488;12.238;2023-03-19T03:24:05;13.77;;;6.85;;
38787;SDS011;24536;45.488;12.238;2023-03-19T03:26:31;7.82;;;6.13;;
38787;SDS011;24536;45.488;12.238;2023-03-19T03:28:58;7.35;;;5.72;;
38787;SDS011;24536;45.488;12.238;2023-03-19T03:31:24;6.68;;;5.57;;
38787;SDS011;24536;45.488;12.238;2023-03-19T03:33:51;7.80;;;6.10;;
38787;SDS011;24536;45.488;12.238;2023-03-19T03:36:16;6.70;;;5.72;;
38787;SDS011;24536;45.488;12.238;2023-03-19T03:38:42;8.55;;;5.95;;
38787;SDS011;24536;45.488;12.238;2023-03-19T03:41:09;8.68;;;6.72;;
38787;SDS011;24536;45.488;12.238;2023-03-19T03:43:34;8.25;;;6.80;;
38787;SDS011;24536;45.488;12.238;2023-03-19T03:46:00;9.35;;;7.90;;
38787;SDS011;24536;45.488;12.238;2023-03-19T03:48:26;10.60;;;8.00;;
38787;SDS011;24536;45.488;12.238;2023-03-19T03:50:52;9.73;;;7.10;;
38787;SDS011;24536;45.488;12.238;2023-03-19T03:53:18;9.02;;;6.82;;
38787;SDS011;24536;45.488;12.238;2023-03-19T03:55:43;9.35;;;6.28;;
38787;SDS011;24536;45.488;12.238;2023-03-19T03:58:09;10.55;;;6.05;;
38787;SDS011;24536;45.488;12.238;2023-03-19T04:00:37;8.40;;;6.18;;
38787;SDS011;24536;45.488;12.238;2023-03-19T04:03:02;9.93;;;7.13;;
38787;SDS011;24536;45.488;12.238;2023-03-19T04:05:28;8.55;;;6.45;;
38787;SDS011;24536;45.488;12.238;2023-03-19T04:07:54;10.00;;;6.80;;
38787;SDS011;24536;45.488;12.238;2023-03-19T04:10:21;8.80;;;6.85;;
38787;SDS011;24536;45.488;12.238;2023-03-19T04:12:47;10.23;;;7.13;;
38787;SDS011;24536;45.488;12.238;2023-03-19T04:15:14;8.40;;;6.72;;
38787;SDS011;24536;45.488;12.238;2023-03-19T04:17:40;8.45;;;7.07;;
38787;SDS011;24536;45.488;12.238;2023-03-19T04:20:07;8.45;;;6.30;;
38787;SDS011;24536;45.488;12.238;2023-03-19T04:22:35;7.20;;;5.15;;
38787;SDS011;24536;45.488;12.238;2023-03-19T04:25:00;9.57;;;5.57;;
38787;SDS011;24536;45.488;12.238;2023-03-19T04:27:26;6.15;;;5.15;;
38787;SDS011;24536;45.488;12.238;2023-03-19T04:29:52;6.30;;;5.47;;
38787;SDS011;24536;45.488;12.238;2023-03-19T04:32:18;5.60;;;4.82;;
38787;SDS011;24536;45.488;12.238;2023-03-19T04:34:43;5.72;;;4.95;;
38787;SDS011;24536;45.488;12.238;2023-03-19T04:37:09;5.45;;;4.85;;
38787;SDS011;24536;45.488;12.238;2023-03-19T04:39:35;5.90;;;4.65;;
38787;SDS011;24536;45.488;12.238;2023-03-19T04:42:01;6.25;;;4.90;;
38787;SDS011;24536;45.488;12.238;2023-03-19T04:44:28;6.30;;;5.18;;
38787;SDS011;24536;45.488;12.238;2023-03-19T04:46:55;7.22;;;5.78;;
38787;SDS011;24536;45.488;12.238;2023-03-19T04:49:20;9.25;;;6.07;;
38787;SDS011;24536;45.488;12.238;2023-03-19T04:51:46;6.55;;;5.85;;
38787;SDS011;24536;45.488;12.238;2023-03-19T04:54:12;7.85;;;6.43;;
38787;SDS011;24536;45.488;12.238;2023-03-19T04:56:37;8.68;;;6.72;;
38787;SDS011;24536;45.488;12.238;2023-03-19T04:59:03;10.80;;;8.13;;
38787;SDS011;24536;45.488;12.238;2023-03-19T05:01:29;10.65;;;7.57;;
38787;SDS011;24536;45.488;12.238;2023-03-19T05:03:55;8.65;;;7.40;;
38787;SDS011;24536;45.488;12.238;2023-03-19T05:06:21;8.93;;;7.55;;
38787;SDS011;24536;45.488;12.238;2023-03-19T05:08:46;9.60;;;8.52;;
38787;SDS011;24536;45.488;12.238;2023-03-19T05:11:12;13.02;;;9.68;;
38787;SDS011;24536;45.488;12.238;2023-03-19T05:13:38;14.18;;;11.02;;
38787;SDS011;24536;45.488;12.238;2023-03-19T05:16:04;12.38;;;10.10;;
38787;SDS011;24536;45.488;12.238;2023-03-19T05:18:30;12.70;;;10.50;;
38787;SDS011;24536;45.488;12.238;2023-03-19T05:20:57;12.30;;;10.25;;
38787;SDS011;24536;45.488;12.238;2023-03-19T05:23:23;14.30;;;10.68;;
38787;SDS011;24536;45.488;12.238;2023-03-19T05:25:48;13.48;;;10.82;;
38787;SDS011;24536;45.488;12.238;2023-03-19T05:28:14;12.85;;;10.70;;
38787;SDS011;24536;45.488;12.238;2023-03-19T05:30:40;13.57;;;10.95;;
38787;SDS011;24536;45.488;12.238;2023-03-19T05:33:07;13.75;;;11.48;;
38787;SDS011;24536;45.488;12.238;2023-03-19T05:35:33;14.27;;;11.80;;
38787;SDS011;24536;45.488;12.238;2023-03-19T05:38:00;16.00;;;12.25;;
38787;SDS011;24536;45.488;12.238;2023-03-19T05:40:26;17.88;;;12.50;;
38787;SDS011;24536;45.488;12.238;2023-03-19T05:42:52;15.70;;;11.70;;
38787;SDS011;24536;45.488;12.238;2023-03-19T05:45:17;15.30;;;11.98;;
38787;SDS011;24536;45.488;12.238;2023-03-19T05:47:45;13.75;;;11.27;;
38787;SDS011;24536;45.488;12.238;2023-03-19T05:50:12;13.73;;;11.57;;
38787;SDS011;24536;45.488;12.238;2023-03-19T05:52:38;13.80;;;11.75;;
38787;SDS011;24536;45.488;12.238;2023-03-19T05:55:04;15.73;;;12.73;;
38787;SDS011;24536;45.488;12.238;2023-03-19T05:57:30;16.35;;;12.05;;
38787;SDS011;24536;45.488;12.238;2023-03-19T05:59:56;18.17;;;14.43;;
38787;SDS011;24536;45.488;12.238;2023-03-19T06:02:22;13.10;;;11.38;;
38787;SDS011;24536;45.488;12.238;2023-03-19T06:04:48;15.40;;;11.50;;
38787;SDS011;24536;45.488;12.238;2023-03-19T06:07:14;15.15;;;12.93;;
38787;SDS011;24536;45.488;12.238;2023-03-19T06:09:39;14.98;;;12.77;;
38787;SDS011;24536;45.488;12.238;2023-03-19T06:12:06;16.20;;;12.38;;
38787;SDS011;24536;45.488;12.238;2023-03-19T06:14:32;19.23;;;11.68;;
38787;SDS011;24536;45.488;12.238;2023-03-19T06:16:58;16.45;;;11.73;;
38787;SDS011;24536;45.488;12.238;2023-03-19T06:24:59;17.08;;;11.50;;
38787;SDS011;24536;45.488;12.238;2023-03-19T06:27:26;16.25;;;11.55;;
38787;SDS011;24536;45.488;12.238;2023-03-19T06:29:58;14.77;;;11.32;;
38787;SDS011;24536;45.488;12.238;2023-03-19T06:32:25;13.88;;;10.98;;
38787;SDS011;24536;45.488;12.238;2023-03-19T06:34:51;15.18;;;11.10;;
38787;SDS011;24536;45.488;12.238;2023-03-19T06:37:17;17.13;;;13.00;;
38787;SDS011;24536;45.488;12.238;2023-03-19T06:39:43;20.13;;;13.10;;
38787;SDS011;24536;45.488;12.238;2023-03-19T06:42:08;19.02;;;13.80;;
38787;SDS011;24536;45.488;12.238;2023-03-19T06:44:38;14.60;;;11.80;;
38787;SDS011;24536;45.488;12.238;2023-03-19T06:47:04;16.27;;;12.30;;
38787;SDS011;24536;45.488;12.238;2023-03-19T06:49:29;17.80;;;12.50;;
38787;SDS011;24536;45.488;12.238;2023-03-19T06:51:56;18.85;;;13.27;;
38787;SDS011;24536;45.488;12.238;2023-03-19T06:54:22;14.95;;;11.38;;
38787;SDS011;24536;45.488;12.238;2023-03-19T06:56:47;17.00;;;11.10;;
38787;SDS011;24536;45.488;12.238;2023-03-19T06:59:14;13.52;;;11.32;;
38787;SDS011;24536;45.488;12.238;2023-03-19T07:01:40;15.15;;;12.15;;
38787;SDS011;24536;45.488;12.238;2023-03-19T07:04:06;15.77;;;11.77;;
38787;SDS011;24536;45.488;12.238;2023-03-19T07:06:32;17.63;;;11.80;;
38787;SDS011;24536;45.488;12.238;2023-03-19T07:08:58;18.00;;;12.23;;
38787;SDS011;24536;45.488;12.238;2023-03-19T07:11:24;19.08;;;11.73;;
38787;SDS011;24536;45.488;12.238;2023-03-19T07:13:50;20.33;;;11.35;;
38787;SDS011;24536;45.488;12.238;2023-03-19T07:16:16;13.77;;;11.30;;
38787;SDS011;24536;45.488;12.238;2023-03-19T07:18:42;15.68;;;11.15;;
38787;SDS011;24536;45.488;12.238;2023-03-19T07:21:08;13.45;;;10.77;;
38787;SDS011;24536;45.488;12.238;2023-03-19T07:23:34;13.70;;;10.95;;
38787;SDS011;24536;45.488;12.238;2023-03-19T07:25:59;13.73;;;10.70;;
38787;SDS011;24536;45.488;12.238;2023-03-19T07:28:25;14.07;;;10.07;;
38787;SDS011;24536;45.488;12.238;2023-03-19T07:30:51;14.40;;;10.93;;
38787;SDS011;24536;45.488;12.238;2023-03-19T07:33:18;14.57;;;11.23;;
38787;SDS011;24536;45.488;12.238;2023-03-19T07:35:45;13.85;;;10.63;;
38787;SDS011;24536;45.488;12.238;2023-03-19T07:38:10;14.05;;;10.65;;
38787;SDS011;24536;45.488;12.238;2023-03-19T07:40:36;15.75;;;9.55;;
38787;SDS011;24536;45.488;12.238;2023-03-19T07:43:02;12.07;;;9.82;;
38787;SDS011;24536;45.488;12.238;2023-03-19T07:45:28;13.73;;;10.65;;
38787;SDS011;24536;45.488;12.238;2023-03-19T07:47:54;14.75;;;9.98;;
38787;SDS011;24536;45.488;12.238;2023-03-19T07:50:20;12.65;;;9.80;;
38787;SDS011;24536;45.488;12.238;2023-03-19T07:52:46;13.80;;;10.20;;
38787;SDS011;24536;45.488;12.238;2023-03-19T07:55:12;13.68;;;9.88;;
38787;SDS011;24536;45.488;12.238;2023-03-19T07:57:38;13.15;;;9.55;;
38787;SDS011;24536;45.488;12.238;2023-03-19T08:00:04;13.15;;;10.77;;
38787;SDS011;24536;45.488;12.238;2023-03-19T08:02:32;13.82;;;9.73;;
38787;SDS011;24536;45.488;12.238;2023-03-19T08:04:57;11.20;;;8.90;;
38787;SDS011;24536;45.488;12.238;2023-03-19T08:07:26;11.73;;;9.65;;
38787;SDS011;24536;45.488;12.238;2023-03-19T08:09:52;13.18;;;10.10;;
38787;SDS011;24536;45.488;12.238;2023-03-19T08:12:17;14.27;;;11.50;;
38787;SDS011;24536;45.488;12.238;2023-03-19T08:14:43;14.00;;;11.32;;
38787;SDS011;24536;45.488;12.238;2023-03-19T08:17:09;12.73;;;9.65;;
38787;SDS011;24536;45.488;12.238;2023-03-19T08:19:35;12.88;;;10.20;;
38787;SDS011;24536;45.488;12.238;2023-03-19T08:22:01;11.73;;;9.48;;
38787;SDS011;24536;45.488;12.238;2023-03-19T08:24:26;11.80;;;8.75;;
38787;SDS011;24536;45.488;12.238;2023-03-19T08:26:52;10.77;;;8.07;;
38787;SDS011;24536;45.488;12.238;2023-03-19T08:29:18;10.50;;;7.53;;
38787;SDS011;24536;45.488;12.238;2023-03-19T08:31:43;10.07;;;8.38;;
38787;SDS011;24536;45.488;12.238;2023-03-19T08:34:10;10.18;;;8.25;;
38787;SDS011;24536;45.488;12.238;2023-03-19T08:36:35;11.55;;;7.85;;
38787;SDS011;24536;45.488;12.238;2023-03-19T08:39:01;10.95;;;7.65;;
38787;SDS011;24536;45.488;12.238;2023-03-19T08:41:28;11.65;;;8.25;;
38787;SDS011;24536;45.488;12.238;2023-03-19T08:43:54;9.00;;;7.32;;
38787;SDS011;24536;45.488;12.238;2023-03-19T08:46:19;10.57;;;7.57;;
38787;SDS011;24536;45.488;12.238;2023-03-19T08:48:45;9.85;;;7.72;;
38787;SDS011;24536;45.488;12.238;2023-03-19T08:51:11;9.30;;;7.80;;
38787;SDS011;24536;45.488;12.238;2023-03-19T08:53:37;10.45;;;7.35;;
38787;SDS011;24536;45.488;12.238;2023-03-19T08:56:04;8.73;;;6.80;;
38787;SDS011;24536;45.488;12.238;2023-03-19T08:58:32;11.43;;;7.45;;
38787;SDS011;24536;45.488;12.238;2023-03-19T09:01:01;11.63;;;7.57;;
38787;SDS011;24536;45.488;12.238;2023-03-19T09:03:29;11.95;;;8.10;;
38787;SDS011;24536;45.488;12.238;2023-03-19T09:06:02;8.18;;;7.22;;
38787;SDS011;24536;45.488;12.238;2023-03-19T09:08:29;7.80;;;6.88;;
38787;SDS011;24536;45.488;12.238;2023-03-19T09:10:55;8.80;;;7.32;;
38787;SDS011;24536;45.488;12.238;2023-03-19T09:13:21;10.45;;;6.57;;
38787;SDS011;24536;45.488;12.238;2023-03-19T09:15:48;7.95;;;6.40;;
38787;SDS011;24536;45.488;12.238;2023-03-19T09:18:14;11.38;;;7.35;;
38787;SDS011;24536;45.488;12.238;2023-03-19T09:20:41;7.25;;;6.55;;
38787;SDS011;24536;45.488;12.238;2023-03-19T09:23:07;8.80;;;6.45;;
38787;SDS011;24536;45.488;12.238;2023-03-19T09:25:32;8.27;;;5.90;;
38787;SDS011;24536;45.488;12.238;2023-03-19T09:27:58;8.25;;;5.60;;
38787;SDS011;24536;45.488;12.238;2023-03-19T09:30:24;9.02;;;6.22;;
38787;SDS011;24536;45.488;12.238;2023-03-19T09:32:50;8.27;;;5.03;;
38787;SDS011;24536;45.488;12.238;2023-03-19T09:35:15;5.97;;;4.82;;
38787;SDS011;24536;45.488;12.238;2023-03-19T09:37:41;5.90;;;4.60;;
38787;SDS011;24536;45.488;12.238;2023-03-19T09:40:08;5.60;;;4.32;;
38787;SDS011;24536;45.488;12.238;2023-03-19T09:45:26;5.97;;;4.68;;
38787;SDS011;24536;45.488;12.238;2023-03-19T09:47:54;11.25;;;5.00;;
38787;SDS011;24536;45.488;12.238;2023-03-19T09:50:28;9.80;;;4.80;;
38787;SDS011;24536;45.488;12.238;2023-03-19T09:55:49;7.50;;;4.63;;
38787;SDS011;24536;45.488;12.238;2023-03-19T10:00:45;5.93;;;4.60;;
38787;SDS011;24536;45.488;12.238;2023-03-19T10:17:14;5.20;;;4.05;;
38787;SDS011;24536;45.488;12.238;2023-03-19T10:20:23;6.95;;;4.60;;
38787;SDS011;24536;45.488;12.238;2023-03-19T10:22:47;5.72;;;4.32;;
38787;SDS011;24536;45.488;12.238;2023-03-19T10:25:20;5.00;;;3.72;;
38787;SDS011;24536;45.488;12.238;2023-03-19T10:28:33;5.60;;;3.95;;
38787;SDS011;24536;45.488;12.238;2023-03-19T10:35:43;6.18;;;4.50;;
38787;SDS011;24536;45.488;12.238;2023-03-19T10:38:21;6.57;;;4.60;;
38787;SDS011;24536;45.488;12.238;2023-03-19T10:43:42;5.95;;;4.97;;
38787;SDS011;24536;45.488;12.238;2023-03-19T10:46:15;7.82;;;5.05;;
38787;SDS011;24536;45.488;12.238;2023-03-19T10:48:44;6.65;;;4.47;;
38787;SDS011;24536;45.488;12.238;2023-03-19T10:51:21;5.93;;;4.22;;
38787;SDS011;24536;45.488;12.238;2023-03-19T10:53:48;7.47;;;5.70;;
38787;SDS011;24536;45.488;12.238;2023-03-19T10:56:24;8.80;;;6.35;;
38787;SDS011;24536;45.488;12.238;2023-03-19T10:59:01;6.50;;;4.10;;
38787;SDS011;24536;45.488;12.238;2023-03-19T11:01:33;6.60;;;4.65;;
38787;SDS011;24536;45.488;12.238;2023-03-19T11:04:24;5.78;;;4.40;;
38787;SDS011;24536;45.488;12.238;2023-03-19T11:07:01;6.57;;;5.38;;
38787;SDS011;24536;45.488;12.238;2023-03-19T11:09:38;9.05;;;4.63;;
38787;SDS011;24536;45.488;12.238;2023-03-19T11:12:07;5.15;;;3.65;;
38787;SDS011;24536;45.488;12.238;2023-03-19T11:14:51;8.30;;;4.55;;
38787;SDS011;24536;45.488;12.238;2023-03-19T11:19:53;5.43;;;3.97;;
38787;SDS011;24536;45.488;12.238;2023-03-19T11:24:54;7.00;;;4.35;;
38787;SDS011;24536;45.488;12.238;2023-03-19T11:29:53;5.70;;;4.28;;
38787;SDS011;24536;45.488;12.238;2023-03-19T11:37:53;6.00;;;4.13;;
38787;SDS011;24536;45.488;12.238;2023-03-19T11:40:28;5.45;;;4.13;;
38787;SDS011;24536;45.488;12.238;2023-03-19T11:46:08;5.95;;;4.63;;
38787;SDS011;24536;45.488;12.238;2023-03-19T11:51:53;6.82;;;4.00;;
38787;SDS011;24536;45.488;12.238;2023-03-19T12:00:51;4.15;;;3.28;;
38787;SDS011;24536;45.488;12.238;2023-03-19T12:09:07;7.13;;;3.75;;
38787;SDS011;24536;45.488;12.238;2023-03-19T12:25:25;7.32;;;4.38;;
38787;SDS011;24536;45.488;12.238;2023-03-19T12:28:06;4.63;;;3.50;;
38787;SDS011;24536;45.488;12.238;2023-03-19T12:36:19;4.93;;;3.50;;
38787;SDS011;24536;45.488;12.238;2023-03-19T12:38:52;5.60;;;4.00;;
38787;SDS011;24536;45.488;12.238;2023-03-19T12:41:26;4.82;;;3.25;;
38787;SDS011;24536;45.488;12.238;2023-03-19T12:44:10;5.72;;;3.33;;
38787;SDS011;24536;45.488;12.238;2023-03-19T12:49:39;7.35;;;3.50;;
38787;SDS011;24536;45.488;12.238;2023-03-19T12:52:23;5.93;;;3.50;;
38787;SDS011;24536;45.488;12.238;2023-03-19T12:55:01;4.63;;;3.30;;
38787;SDS011;24536;45.488;12.238;2023-03-19T13:00:09;4.63;;;3.63;;
38787;SDS011;24536;45.488;12.238;2023-03-19T13:05:31;4.22;;;3.03;;
38787;SDS011;24536;45.488;12.238;2023-03-19T13:10:40;5.35;;;3.95;;
38787;SDS011;24536;45.488;12.238;2023-03-19T13:13:21;7.07;;;4.03;;
38787;SDS011;24536;45.488;12.238;2023-03-19T13:15:49;9.18;;;4.93;;
38787;SDS011;24536;45.488;12.238;2023-03-19T13:23:46;6.10;;;3.60;;
38787;SDS011;24536;45.488;12.238;2023-03-19T13:26:15;6.55;;;3.60;;
38787;SDS011;24536;45.488;12.238;2023-03-19T13:29:50;4.57;;;3.92;;
38787;SDS011;24536;45.488;12.238;2023-03-19T13:31:37;4.63;;;3.70;;
38787;SDS011;24536;45.488;12.238;2023-03-19T13:34:05;5.68;;;4.07;;
38787;SDS011;24536;45.488;12.238;2023-03-19T13:39:15;5.38;;;3.58;;
38787;SDS011;24536;45.488;12.238;2023-03-19T13:41:47;5.57;;;3.10;;
38787;SDS011;24536;45.488;12.238;2023-03-19T13:44:40;3.83;;;3.00;;
38787;SDS011;24536;45.488;12.238;2023-03-19T13:52:46;3.85;;;3.45;;
38787;SDS011;24536;45.488;12.238;2023-03-19T13:55:42;5.88;;;3.55;;
38787;SDS011;24536;45.488;12.238;2023-03-19T13:58:18;5.82;;;4.15;;
38787;SDS011;24536;45.488;12.238;2023-03-19T14:01:07;5.78;;;3.70;;
38787;SDS011;24536;45.488;12.238;2023-03-19T14:03:35;5.15;;;3.80;;
38787;SDS011;24536;45.488;12.238;2023-03-19T14:06:26;6.10;;;3.90;;
38787;SDS011;24536;45.488;12.238;2023-03-19T14:09:29;5.72;;;4.43;;
38787;SDS011;24536;45.488;12.238;2023-03-19T14:15:02;5.40;;;3.80;;
38787;SDS011;24536;45.488;12.238;2023-03-19T14:31:45;6.40;;;3.85;;
38787;SDS011;24536;45.488;12.238;2023-03-19T14:36:37;4.82;;;3.42;;
38787;SDS011;24536;45.488;12.238;2023-03-19T14:39:20;5.53;;;3.35;;
38787;SDS011;24536;45.488;12.238;2023-03-19T14:41:49;7.90;;;4.60;;
38787;SDS011;24536;45.488;12.238;2023-03-19T14:47:24;5.95;;;2.95;;
38787;SDS011;24536;45.488;12.238;2023-03-19T14:55:36;3.80;;;2.00;;
38787;SDS011;24536;45.488;12.238;2023-03-19T14:58:02;6.68;;;2.50;;
38787;SDS011;24536;45.488;12.238;2023-03-19T15:00:36;2.67;;;1.52;;
38787;SDS011;24536;45.488;12.238;2023-03-19T15:05:55;3.00;;;1.73;;
38787;SDS011;24536;45.488;12.238;2023-03-19T15:08:23;3.78;;;1.50;;
38787;SDS011;24536;45.488;12.238;2023-03-19T15:16:29;2.65;;;1.63;;
38787;SDS011;24536;45.488;12.238;2023-03-19T15:19:15;3.75;;;1.55;;
38787;SDS011;24536;45.488;12.238;2023-03-19T15:21:47;3.05;;;1.77;;
38787;SDS011;24536;45.488;12.238;2023-03-19T15:24:15;4.85;;;1.83;;
38787;SDS011;24536;45.488;12.238;2023-03-19T15:26:41;2.75;;;1.60;;
38787;SDS011;24536;45.488;12.238;2023-03-19T15:29:08;3.35;;;1.40;;
38787;SDS011;24536;45.488;12.238;2023-03-19T15:31:45;3.08;;;1.80;;
38787;SDS011;24536;45.488;12.238;2023-03-19T15:34:20;3.72;;;1.80;;
38787;SDS011;24536;45.488;12.238;2023-03-19T15:36:51;4.43;;;1.52;;
38787;SDS011;24536;45.488;12.238;2023-03-19T15:39:42;2.72;;;1.80;;
38787;SDS011;24536;45.488;12.238;2023-03-19T15:42:13;3.22;;;1.63;;
38787;SDS011;24536;45.488;12.238;2023-03-19T15:44:42;2.60;;;1.60;;
38787;SDS011;24536;45.488;12.238;2023-03-19T15:47:18;4.30;;;1.60;;
38787;SDS011;24536;45.488;12.238;2023-03-19T15:49:57;2.25;;;1.65;;
38787;SDS011;24536;45.488;12.238;2023-03-19T15:52:44;2.75;;;1.27;;
38787;SDS011;24536;45.488;12.238;2023-03-19T15:55:15;1.63;;;1.10;;
38787;SDS011;24536;45.488;12.238;2023-03-19T15:57:42;3.70;;;1.67;;
38787;SDS011;24536;45.488;12.238;2023-03-19T16:00:09;3.15;;;1.83;;
38787;SDS011;24536;45.488;12.238;2023-03-19T16:02:41;1.95;;;1.35;;
38787;SDS011;24536;45.488;12.238;2023-03-19T16:05:26;2.80;;;1.17;;
38787;SDS011;24536;45.488;12.238;2023-03-19T16:08:01;4.45;;;2.05;;
38787;SDS011;24536;45.488;12.238;2023-03-19T16:10:34;2.83;;;2.00;;
38787;SDS011;24536;45.488;12.238;2023-03-19T16:15:52;2.25;;;1.60;;
38787;SDS011;24536;45.488;12.238;2023-03-19T16:21:07;2.60;;;1.83;;
38787;SDS011;24536;45.488;12.238;2023-03-19T16:23:42;2.28;;;1.70;;
38787;SDS011;24536;45.488;12.238;2023-03-19T16:26:14;2.63;;;1.95;;
38787;SDS011;24536;45.488;12.238;2023-03-19T16:28:47;5.68;;;1.90;;
38787;SDS011;24536;45.488;12.238;2023-03-19T16:31:22;3.75;;;2.05;;
38787;SDS011;24536;45.488;12.238;2023-03-19T16:33:48;3.78;;;2.63;;
38787;SDS011;24536;45.488;12.238;2023-03-19T16:36:16;4.13;;;2.80;;
38787;SDS011;24536;45.488;12.238;2023-03-19T16:38:52;5.28;;;3.08;;
38787;SDS011;24536;45.488;12.238;2023-03-19T16:41:36;6.00;;;2.60;;
38787;SDS011;24536;45.488;12.238;2023-03-19T16:44:17;3.42;;;2.40;;
38787;SDS011;24536;45.488;12.238;2023-03-19T16:46:43;3.83;;;2.60;;
38787;SDS011;24536;45.488;12.238;2023-03-19T16:49:09;8.88;;;3.30;;
38787;SDS011;24536;45.488;12.238;2023-03-19T16:51:35;9.93;;;4.40;;
38787;SDS011;24536;45.488;12.238;2023-03-19T16:54:02;9.32;;;4.80;;
38787;SDS011;24536;45.488;12.238;2023-03-19T16:56:28;7.32;;;4.38;;
38787;SDS011;24536;45.488;12.238;2023-03-19T16:58:54;6.47;;;3.60;;
38787;SDS011;24536;45.488;12.238;2023-03-19T17:01:21;4.28;;;2.50;;
38787;SDS011;24536;45.488;12.238;2023-03-19T17:03:48;2.95;;;2.00;;
38787;SDS011;24536;45.488;12.238;2023-03-19T17:06:15;5.65;;;2.38;;
38787;SDS011;24536;45.488;12.238;2023-03-19T17:08:41;4.70;;;2.35;;
38787;SDS011;24536;45.488;12.238;2023-03-19T17:11:30;3.80;;;2.15;;
38787;SDS011;24536;45.488;12.238;2023-03-19T17:13:58;4.70;;;2.22;;
38787;SDS011;24536;45.488;12.238;2023-03-19T17:16:25;2.78;;;1.75;;